Time;durP1;ratioP1;P1;durP2;ratioP2;P2;SDS_P1;SDS_P2;PMS_P1;PMS_P2;Temp;Humidity;BMP_temperature;BMP_pressure;BME280_temperature;BME280_humidity;BME280_pressure;Samples;Min_cycle;Max_cycle;Signal;HPM_P1;HPM_P2
2023/01/10 00:01:14;;;;;;;13.90;4.35;;;;;;;3.89;100.00;101193.38;5046810;28;20026;-56
2023/01/10 00:03:39;;;;;;;16.20;4.93;;;;;;;3.89;100.00;101203.03;5060288;28;20087;-54
2023/01/10 00:06:04;;;;;;;13.77;4.55;;;;;;;3.85;100.00;101207.59;5058264;28;20052;-56
2023/01/10 00:08:30;;;;;;;14.55;4.38;;;;;;;3.84;100.00;101210.28;5061057;28;20028;-57
2023/01/10 00:10:55;;;;;;;11.63;4.20;;;;;;;3.82;100.00;101220.00;5060434;28;20029;-56
2023/01/10 00:13:23;;;;;;;14.05;4.60;;;;;;;3.78;100.00;101216.66;5072787;28;20040;-57
2023/01/10 00:15:53;;;;;;;15.00;5.03;;;;;;;3.76;100.00;101226.34;5054507;28;20033;-56
2023/01/10 00:18:20;;;;;;;16.02;4.35;;;;;;;3.75;100.00;101231.66;5058455;28;20044;-56
2023/01/10 00:20:47;;;;;;;10.25;4.05;;;;;;;3.72;100.00;101237.06;5054942;28;20057;-56
2023/01/10 00:23:13;;;;;;;14.63;5.00;;;;;;;3.72;100.00;101248.44;5060569;28;20541;-55
2023/01/10 00:25:39;;;;;;;18.30;4.13;;;;;;;3.70;100.00;101245.03;5053365;28;20025;-56
2023/01/10 00:30:32;;;;;;;15.48;4.00;;;;;;;3.67;100.00;101263.53;5059834;28;20056;-56
2023/01/10 00:32:57;;;;;;;18.02;4.93;;;;;;;3.66;100.00;101264.44;5060553;28;20040;-52
2023/01/10 00:35:23;;;;;;;15.75;4.20;;;;;;;3.64;100.00;101271.53;5071610;28;20072;-54
2023/01/10 00:37:48;;;;;;;17.60;4.22;;;;;;;3.61;100.00;101274.28;5060728;28;20596;-52
2023/01/10 00:40:13;;;;;;;16.98;4.78;;;;;;;3.58;100.00;101277.03;5059923;28;20021;-54
2023/01/10 00:45:23;;;;;;;11.27;3.95;;;;;;;3.52;100.00;101275.50;5060886;28;20035;-54
2023/01/10 00:47:50;;;;;;;16.05;4.43;;;;;;;3.48;100.00;101271.28;5061378;28;20064;-57
2023/01/10 00:50:16;;;;;;;13.35;4.40;;;;;;;3.46;100.00;101281.84;5049464;28;20704;-55
2023/01/10 00:52:41;;;;;;;13.73;4.43;;;;;;;3.45;100.00;101287.19;5061214;28;20032;-56
2023/01/10 00:55:07;;;;;;;16.38;4.68;;;;;;;3.44;100.00;101290.72;5060028;28;20029;-56
2023/01/10 00:57:32;;;;;;;19.33;4.93;;;;;;;3.43;100.00;101289.88;5061005;28;20478;-56
2023/01/10 00:59:57;;;;;;;15.98;4.47;;;;;;;3.44;100.00;101295.97;5061233;28;20471;-53
2023/01/10 01:02:23;;;;;;;17.95;5.13;;;;;;;3.43;100.00;101289.88;5057760;28;20055;-58
2023/01/10 01:04:48;;;;;;;19.33;4.82;;;;;;;3.46;100.00;101291.50;5050673;28;20033;-56
2023/01/10 01:07:13;;;;;;;16.35;4.68;;;;;;;3.48;100.00;101292.28;5059525;28;20028;-53
2023/01/10 01:10:25;;;;;;;15.02;4.20;;;;;;;3.47;100.00;101296.69;5056569;28;20440;-54
2023/01/10 01:12:24;;;;;;;20.58;4.78;;;;;;;3.46;100.00;101297.59;5042576;28;20034;-52
2023/01/10 01:14:49;;;;;;;18.75;4.63;;;;;;;3.48;100.00;101302.78;5056047;28;20113;-52
2023/01/10 01:17:14;;;;;;;14.00;5.20;;;;;;;3.47;100.00;101314.22;5058360;28;20021;-54
2023/01/10 01:19:40;;;;;;;23.38;5.80;;;;;;;3.46;100.00;101325.63;5057054;28;20070;-53
2023/01/10 01:22:07;;;;;;;20.30;6.78;;;;;;;3.45;100.00;101329.19;5046109;28;20471;-55
2023/01/10 01:24:32;;;;;;;18.58;8.20;;;;;;;3.47;100.00;101333.47;5054764;28;20037;-55
2023/01/10 01:27:03;;;;;;;22.70;9.95;;;;;;;3.49;100.00;101333.41;5064082;28;20035;-57
2023/01/10 01:29:29;;;;;;;27.88;11.80;;;;;;;3.50;100.00;101335.13;5063316;28;20027;-55
2023/01/10 01:31:56;;;;;;;26.85;11.15;;;;;;;3.51;100.00;101331.56;5052216;28;20052;-56
2023/01/10 01:34:21;;;;;;;27.00;11.25;;;;;;;3.51;100.00;101340.31;5074593;28;20024;-57
2023/01/10 01:36:46;;;;;;;27.70;11.88;;;;;;;3.52;100.00;101346.41;5048634;28;20118;-55
2023/01/10 01:39:11;;;;;;;25.33;10.80;;;;;;;3.51;100.00;101342.06;5055827;28;20444;-53
2023/01/10 01:44:21;;;;;;;22.90;10.43;;;;;;;3.58;100.00;101359.31;5063934;28;20067;-56
2023/01/10 01:46:59;;;;;;;25.65;10.07;;;;;;;3.62;100.00;101349.53;5065538;28;20033;-56
2023/01/10 01:49:24;;;;;;;20.42;8.75;;;;;;;3.65;100.00;101358.16;5059002;28;20064;-56
2023/01/10 01:51:56;;;;;;;27.15;9.40;;;;;;;3.69;100.00;101366.75;5061350;28;20018;-56
2023/01/10 01:54:22;;;;;;;23.25;8.65;;;;;;;3.70;100.00;101368.50;5055553;28;20033;-56
2023/01/10 01:56:54;;;;;;;24.15;8.43;;;;;;;3.72;100.00;101371.91;5059326;28;20029;-55
2023/01/10 01:59:42;;;;;;;27.02;7.72;;;;;;;3.75;100.00;101369.16;5058490;28;20037;-57
2023/01/10 02:02:18;;;;;;;23.77;6.82;;;;;;;3.78;100.00;101376.94;5068765;28;20025;-56
2023/01/10 02:04:54;;;;;;;22.70;7.10;;;;;;;3.79;100.00;101373.34;5058823;28;20029;-57
2023/01/10 02:07:22;;;;;;;18.85;7.10;;;;;;;3.80;100.00;101366.34;5051737;28;20029;-57
2023/01/10 02:09:57;;;;;;;23.55;7.43;;;;;;;3.83;100.00;101366.22;5061611;28;20041;-56
2023/01/10 02:12:23;;;;;;;18.73;6.22;;;;;;;3.85;100.00;101377.53;5057004;28;20179;-58
2023/01/10 02:14:50;;;;;;;25.48;6.53;;;;;;;3.85;100.00;101377.53;5052089;28;20112;-57
2023/01/10 02:17:16;;;;;;;25.35;6.57;;;;;;;3.85;100.00;101386.25;5058347;28;20033;-57
2023/01/10 02:19:58;;;;;;;23.80;6.15;;;;;;;3.87;100.00;101387.06;5058198;28;20379;-57
2023/01/10 02:22:38;;;;;;;21.33;5.47;;;;;;;3.86;100.00;101388.00;5044279;28;20059;-56
2023/01/10 02:25:41;;;;;;;20.88;6.07;;;;;;;3.89;100.00;101376.47;5056791;28;20035;-56
2023/01/10 02:28:48;;;;;;;18.90;4.82;;;;;;;3.89;100.00;101376.47;5062769;28;20059;-57
2023/01/10 02:31:58;;;;;;;21.73;5.38;;;;;;;3.88;100.00;101378.25;4975249;28;20033;-58
2023/01/10 02:34:49;;;;;;;20.13;5.00;;;;;;;3.87;100.00;101378.31;5054170;28;20421;-56
2023/01/10 02:37:51;;;;;;;18.92;4.90;;;;;;;3.87;100.00;101368.66;5063655;28;20060;-57
2023/01/10 02:40:28;;;;;;;23.63;4.50;;;;;;;3.85;100.00;101370.50;5064760;28;20107;-56
2023/01/10 02:42:56;;;;;;;17.20;4.38;;;;;;;3.85;100.00;101383.63;5064736;28;20423;-54
2023/01/10 02:45:38;;;;;;;23.70;4.72;;;;;;;3.84;100.00;101378.44;5063833;28;20021;-56
2023/01/10 02:48:03;;;;;;;21.48;4.80;;;;;;;3.83;100.00;101381.97;5065268;28;20056;-55
2023/01/10 02:50:52;;;;;;;20.20;4.90;;;;;;;3.81;100.00;101387.28;5064221;28;20060;-57
2023/01/10 02:53:40;;;;;;;22.92;5.20;;;;;;;3.80;100.00;101385.59;5063826;28;20033;-57
2023/01/10 02:56:11;;;;;;;16.65;4.97;;;;;;;3.76;100.00;101391.88;5056838;28;20034;-56
2023/01/10 02:59:14;;;;;;;18.90;4.47;;;;;;;3.75;100.00;101397.19;5063017;28;20116;-57
2023/01/10 03:01:56;;;;;;;20.33;4.53;;;;;;;3.72;100.00;101403.44;5047567;28;20055;-55
2023/01/10 03:04:50;;;;;;;18.23;4.57;;;;;;;3.69;100.00;101406.16;5052262;28;20100;-54
2023/01/10 03:07:39;;;;;;;19.90;4.85;;;;;;;3.64;100.00;101408.97;5049338;28;20036;-54
2023/01/10 03:10:09;;;;;;;12.85;4.20;;;;;;;3.62;100.00;101415.22;5064184;28;20032;-57
2023/01/10 03:12:47;;;;;;;14.63;4.20;;;;;;;3.60;100.00;101425.78;5053628;28;20502;-55
2023/01/10 03:15:16;;;;;;;15.97;4.30;;;;;;;3.60;100.00;101417.06;5063993;28;20075;-54
2023/01/10 03:17:44;;;;;;;21.98;4.65;;;;;;;3.58;100.00;101422.38;5066355;28;20335;-57
2023/01/10 03:20:10;;;;;;;27.05;4.65;;;;;;;3.58;100.00;101434.63;5059136;28;20487;-56
2023/01/10 03:22:38;;;;;;;20.40;4.47;;;;;;;3.58;100.00;101442.50;5063573;28;20029;-56
2023/01/10 03:25:06;;;;;;;19.05;4.40;;;;;;;3.58;100.00;101439.88;5061432;28;20029;-54
2023/01/10 03:27:37;;;;;;;13.15;3.92;;;;;;;3.60;100.00;101441.53;5063201;28;20044;-57
2023/01/10 03:30:17;;;;;;;18.65;5.07;;;;;;;3.62;100.00;101442.31;5073262;28;20044;-55
2023/01/10 03:32:43;;;;;;;21.25;5.47;;;;;;;3.63;100.00;101441.44;5063692;28;20025;-57
2023/01/10 03:35:11;;;;;;;19.85;4.45;;;;;;;3.64;100.00;101443.13;5061989;28;20020;-56
2023/01/10 03:37:55;;;;;;;16.42;4.15;;;;;;;3.67;100.00;101444.78;5062992;28;20048;-58
2023/01/10 03:40:35;;;;;;;22.45;4.85;;;;;;;3.69;100.00;101451.69;5049216;28;20364;-55
2023/01/10 03:46:20;;;;;;;19.05;4.75;;;;;;;3.73;100.00;101455.06;5046015;28;20612;-55
2023/01/10 03:48:47;;;;;;;23.05;4.60;;;;;;;3.74;100.00;101464.66;5058044;28;20099;-54
2023/01/10 03:51:15;;;;;;;18.27;5.18;;;;;;;3.75;100.00;101458.50;5067540;28;20076;-53
2023/01/10 03:53:41;;;;;;;21.20;4.75;;;;;;;3.78;100.00;101465.38;5050801;28;20118;-56
2023/01/10 03:56:06;;;;;;;16.92;4.50;;;;;;;3.78;100.00;101468.88;5063026;28;20467;-54
2023/01/10 03:58:32;;;;;;;19.92;4.93;;;;;;;3.80;100.00;101474.09;5053882;28;20376;-56
2023/01/10 04:00:57;;;;;;;18.05;4.70;;;;;;;3.82;100.00;101485.38;5058704;28;20043;-57
2023/01/10 04:03:23;;;;;;;22.58;4.85;;;;;;;3.82;100.00;101480.97;5051162;28;20036;-56
2023/01/10 04:05:49;;;;;;;21.92;4.47;;;;;;;3.82;100.00;101480.97;5059522;28;20928;-57
2023/01/10 04:08:14;;;;;;;22.33;5.03;;;;;;;3.83;100.00;101487.97;5067527;28;20032;-57
2023/01/10 04:10:39;;;;;;;19.95;4.97;;;;;;;3.83;100.00;101485.34;5057687;28;20037;-57
2023/01/10 04:13:05;;;;;;;20.45;4.35;;;;;;;3.84;100.00;101494.91;5061480;28;20103;-57
2023/01/10 04:15:31;;;;;;;21.55;3.88;;;;;;;3.84;100.00;101491.44;5059895;28;20147;-55
2023/01/10 04:17:56;;;;;;;22.27;4.88;;;;;;;3.83;100.00;101503.72;5070560;28;20055;-57
2023/01/10 04:20:25;;;;;;;19.25;4.70;;;;;;;3.83;100.00;101508.97;5065018;28;20071;-52
2023/01/10 04:22:50;;;;;;;25.77;4.78;;;;;;;3.83;100.00;101514.25;5048682;28;20029;-54
2023/01/10 04:25:16;;;;;;;16.73;4.38;;;;;;;3.82;100.00;101516.91;5056921;28;20021;-56
2023/01/10 04:27:41;;;;;;;23.08;4.35;;;;;;;3.81;100.00;101516.03;5065800;28;20033;-57
2023/01/10 04:30:07;;;;;;;22.88;4.57;;;;;;;3.83;100.00;101522.13;5062174;28;20088;-57
2023/01/10 04:32:32;;;;;;;23.25;4.88;;;;;;;3.83;100.00;101516.00;5055470;28;20036;-56
2023/01/10 04:34:57;;;;;;;19.13;4.60;;;;;;;3.83;100.00;101514.25;5061688;28;20021;-57
2023/01/10 04:37:23;;;;;;;21.80;4.68;;;;;;;3.85;100.00;101508.94;5061025;28;20033;-57
2023/01/10 04:39:48;;;;;;;27.05;5.00;;;;;;;3.85;100.00;101501.03;5059927;28;20383;-55
2023/01/10 04:42:16;;;;;;;22.48;4.63;;;;;;;3.84;100.00;101497.53;5055250;28;20103;-57
2023/01/10 04:44:41;;;;;;;24.90;5.03;;;;;;;3.85;100.00;101493.16;5061723;28;20049;-56
2023/01/10 04:47:06;;;;;;;23.90;5.50;;;;;;;3.85;100.00;101512.41;5062489;28;20040;-57
2023/01/10 04:49:31;;;;;;;22.05;4.57;;;;;;;3.84;100.00;101523.81;5050589;28;20052;-56
2023/01/10 04:51:57;;;;;;;25.33;4.78;;;;;;;3.84;100.00;101542.22;5061319;28;20028;-57
2023/01/10 04:54:22;;;;;;;26.73;4.93;;;;;;;3.84;100.00;101536.09;5061940;28;20036;-55
2023/01/10 04:56:48;;;;;;;21.88;4.60;;;;;;;3.85;100.00;101529.94;5061718;28;20021;-57
2023/01/10 04:59:13;;;;;;;27.25;4.57;;;;;;;3.85;100.00;101522.06;5050983;28;20033;-57
2023/01/10 05:01:39;;;;;;;24.90;5.05;;;;;;;3.85;100.00;101506.31;5062649;28;20075;-56
2023/01/10 05:04:05;;;;;;;15.60;3.92;;;;;;;3.86;100.00;101508.00;5070686;28;20025;-55
2023/01/10 05:06:31;;;;;;;21.77;3.97;;;;;;;3.84;100.00;101521.19;5047006;28;20030;-57
2023/01/10 05:08:56;;;;;;;20.73;4.55;;;;;;;3.84;100.00;101529.06;5058473;28;20020;-56
2023/01/10 05:11:22;;;;;;;25.67;5.13;;;;;;;3.84;100.00;101531.69;5073409;28;20029;-56
2023/01/10 05:13:47;;;;;;;19.52;5.00;;;;;;;3.84;100.00;101546.63;5060678;28;20025;-56
2023/01/10 05:16:13;;;;;;;21.80;5.15;;;;;;;3.84;100.00;101560.59;5061515;28;20045;-56
2023/01/10 05:18:38;;;;;;;27.95;4.90;;;;;;;3.84;100.00;101568.47;5061096;28;20021;-56
2023/01/10 05:21:06;;;;;;;22.88;4.97;;;;;;;3.86;100.00;101576.31;5059661;28;20043;-56
2023/01/10 05:23:32;;;;;;;20.48;4.38;;;;;;;3.86;100.00;101585.06;5059220;28;20025;-57
2023/01/10 05:26:05;;;;;;;26.52;4.95;;;;;;;3.89;100.00;101566.53;5061295;28;20096;-56
2023/01/10 05:28:30;;;;;;;24.00;4.43;;;;;;;3.88;100.00;101580.63;5058842;28;20060;-57
2023/01/10 05:30:56;;;;;;;24.38;5.00;;;;;;;3.93;100.00;101587.47;5061338;28;20021;-57
2023/01/10 05:33:21;;;;;;;26.77;5.05;;;;;;;3.94;100.00;101586.56;5060295;28;20013;-57
2023/01/10 05:35:46;;;;;;;38.38;5.45;;;;;;;3.95;100.00;101580.41;5058145;28;20022;-56
2023/01/10 05:38:12;;;;;;;19.67;4.38;;;;;;;3.96;100.00;101582.09;5059442;28;20027;-56
2023/01/10 05:40:37;;;;;;;24.90;5.13;;;;;;;3.96;100.00;101582.94;5061540;28;20029;-57
2023/01/10 05:43:02;;;;;;;24.23;5.07;;;;;;;3.95;100.00;101580.41;5060972;28;20540;-57
2023/01/10 05:45:27;;;;;;;22.70;5.03;;;;;;;3.97;100.00;101589.94;5059314;28;20029;-57
2023/01/10 05:47:53;;;;;;;25.20;4.30;;;;;;;3.97;100.00;101597.81;5063362;28;20875;-57
2023/01/10 05:50:18;;;;;;;25.67;5.32;;;;;;;3.96;100.00;101603.13;5061939;28;20399;-57
2023/01/10 05:52:43;;;;;;;28.83;5.50;;;;;;;3.98;100.00;101606.53;5069231;28;20021;-57
2023/01/10 05:55:09;;;;;;;27.73;5.22;;;;;;;3.97;100.00;101608.31;5054875;28;20049;-57
2023/01/10 05:57:34;;;;;;;27.45;4.32;;;;;;;3.98;100.00;101614.44;5061406;28;20096;-56
2023/01/10 05:59:59;;;;;;;28.27;4.63;;;;;;;3.98;100.00;101611.81;5061026;28;20021;-56
2023/01/10 06:02:25;;;;;;;29.33;5.05;;;;;;;3.99;100.00;101614.38;5056105;28;20029;-57
2023/01/10 06:04:51;;;;;;;26.55;5.90;;;;;;;3.98;100.00;101614.44;5060306;28;20348;-57
2023/01/10 06:07:16;;;;;;;28.92;5.30;;;;;;;3.97;100.00;101616.22;5060079;28;20024;-56
2023/01/10 06:09:41;;;;;;;28.77;5.00;;;;;;;4.00;100.00;101612.63;5060217;28;20032;-57
2023/01/10 06:12:07;;;;;;;24.52;5.32;;;;;;;3.98;100.00;101623.19;5054373;28;20471;-57
2023/01/10 06:14:32;;;;;;;25.52;4.97;;;;;;;3.99;100.00;101613.53;5064405;28;20111;-57
2023/01/10 06:16:57;;;;;;;28.30;4.78;;;;;;;3.99;100.00;101605.66;5063999;28;20037;-56
2023/01/10 06:19:22;;;;;;;27.50;4.88;;;;;;;3.98;100.00;101610.06;5067678;28;20159;-57
2023/01/10 06:21:48;;;;;;;27.02;6.00;;;;;;;3.98;100.00;101611.81;5061317;28;20086;-57
2023/01/10 06:24:13;;;;;;;31.70;5.15;;;;;;;3.98;100.00;101623.19;5064528;28;20033;-57
2023/01/10 06:26:38;;;;;;;27.38;5.13;;;;;;;3.98;100.00;101620.56;5063724;28;20025;-56
2023/01/10 06:29:03;;;;;;;28.05;4.72;;;;;;;3.97;100.00;101618.84;5063706;28;20022;-57
2023/01/10 06:31:29;;;;;;;25.10;5.47;;;;;;;3.97;100.00;101620.63;5057130;28;20025;-56
2023/01/10 06:33:54;;;;;;;20.92;4.35;;;;;;;3.96;100.00;101622.38;5063986;28;20032;-57
2023/01/10 06:36:19;;;;;;;22.98;4.20;;;;;;;3.95;100.00;101627.72;5063544;28;20048;-57
2023/01/10 06:38:45;;;;;;;27.13;4.57;;;;;;;3.93;100.00;101630.41;5072965;28;20033;-56
2023/01/10 06:41:13;;;;;;;26.02;4.70;;;;;;;3.93;100.00;101630.41;5045606;28;20056;-54
2023/01/10 06:43:44;;;;;;;33.10;5.00;;;;;;;3.92;100.00;101633.91;5064059;28;20078;-57
2023/01/10 06:46:10;;;;;;;27.98;4.95;;;;;;;3.89;100.00;101639.28;5062909;28;20037;-56
2023/01/10 06:48:36;;;;;;;26.92;5.20;;;;;;;3.87;100.00;101627.97;5055279;28;20079;-56
2023/01/10 06:51:03;;;;;;;23.67;4.45;;;;;;;3.83;100.00;101640.38;5063343;28;20052;-55
2023/01/10 06:53:28;;;;;;;30.42;5.30;;;;;;;3.81;100.00;101652.69;5066534;28;20036;-56
2023/01/10 06:55:54;;;;;;;26.80;5.32;;;;;;;3.78;100.00;101654.56;5056723;28;20028;-56
2023/01/10 06:58:19;;;;;;;20.48;4.70;;;;;;;3.76;100.00;101661.66;5062653;28;20024;-55
2023/01/10 07:00:45;;;;;;;28.80;5.30;;;;;;;3.72;100.00;101665.31;5053421;28;20387;-56
2023/01/10 07:03:10;;;;;;;29.80;4.95;;;;;;;3.68;100.00;101664.53;5053041;28;20383;-57
2023/01/10 07:05:35;;;;;;;27.58;5.03;;;;;;;3.66;100.00;101669.00;5044744;28;20025;-63
2023/01/10 07:08:01;;;;;;;21.30;4.13;;;;;;;3.62;100.00;101681.38;5058095;28;20037;-55
2023/01/10 07:10:26;;;;;;;28.55;5.07;;;;;;;3.59;100.00;101689.34;5048904;28;20111;-55
2023/01/10 07:12:55;;;;;;;22.10;5.50;;;;;;;3.58;100.00;101694.66;5057640;28;20028;-56
2023/01/10 07:15:21;;;;;;;24.88;5.07;;;;;;;3.57;100.00;101703.47;5052432;28;20049;-55
2023/01/10 07:17:46;;;;;;;26.33;5.00;;;;;;;3.55;100.00;101713.16;5055022;28;20112;-56
2023/01/10 07:20:12;;;;;;;27.80;4.93;;;;;;;3.54;100.00;101698.31;5060779;28;20029;-55
2023/01/10 07:22:37;;;;;;;26.15;4.80;;;;;;;3.55;100.00;101707.88;5061092;28;20041;-56
2023/01/10 07:25:04;;;;;;;24.70;4.75;;;;;;;3.53;100.00;101713.22;5056959;28;20036;-53
2023/01/10 07:27:31;;;;;;;33.33;5.40;;;;;;;3.53;100.00;101713.22;5059162;28;20040;-56
2023/01/10 07:29:56;;;;;;;33.67;5.40;;;;;;;3.52;100.00;101716.75;5052747;28;20116;-55
2023/01/10 07:32:22;;;;;;;25.92;4.88;;;;;;;3.51;100.00;101717.66;5041792;28;20080;-53
2023/01/10 07:34:47;;;;;;;29.13;6.03;;;;;;;3.52;100.00;101725.47;5049028;28;20073;-55
2023/01/10 07:37:12;;;;;;;23.90;4.88;;;;;;;3.52;100.00;101735.13;5048569;28;20049;-54
2023/01/10 07:39:38;;;;;;;27.10;4.88;;;;;;;3.52;100.00;101749.13;5047339;28;20045;-54
2023/01/10 07:42:03;;;;;;;25.52;5.18;;;;;;;3.51;100.00;101736.91;5045350;28;20680;-55
2023/01/10 07:44:29;;;;;;;22.00;4.57;;;;;;;3.51;100.00;101733.41;5052295;28;20349;-56
2023/01/10 07:46:54;;;;;;;24.23;5.05;;;;;;;3.51;100.00;101751.78;5052816;28;20051;-55
2023/01/10 07:49:19;;;;;;;18.10;4.63;;;;;;;3.49;100.00;101745.75;5046499;28;20029;-56
2023/01/10 07:51:44;;;;;;;22.77;4.72;;;;;;;3.48;100.00;101754.50;5054292;28;20131;-54
2023/01/10 07:54:10;;;;;;;28.23;4.85;;;;;;;3.47;100.00;101756.28;5043230;28;20021;-56
2023/01/10 07:56:35;;;;;;;28.00;5.63;;;;;;;3.46;100.00;101757.19;5059509;28;20032;-56
2023/01/10 07:59:00;;;;;;;23.90;5.05;;;;;;;3.45;100.00;101752.88;5060176;28;20037;-55
2023/01/10 08:01:26;;;;;;;26.50;5.40;;;;;;;3.44;100.00;101753.75;5058819;28;20031;-55
2023/01/10 08:03:57;;;;;;;25.95;5.85;;;;;;;3.44;100.00;101752.91;5058723;28;20045;-56
2023/01/10 08:06:23;;;;;;;26.15;5.05;;;;;;;3.42;100.00;101750.31;5055061;28;20043;-56
2023/01/10 08:08:48;;;;;;;34.15;5.35;;;;;;;3.41;100.00;101756.47;5059057;28;20395;-55
2023/01/10 08:11:13;;;;;;;24.70;5.22;;;;;;;3.38;100.00;101753.97;5058064;28;20037;-55
2023/01/10 08:13:39;;;;;;;24.73;4.85;;;;;;;3.34;100.00;101747.09;5062594;28;20064;-56
2023/01/10 08:16:07;;;;;;;30.15;5.13;;;;;;;3.31;100.00;101758.56;5059575;28;20821;-56
2023/01/10 08:18:33;;;;;;;26.65;4.85;;;;;;;3.30;100.00;101745.47;5060807;28;20395;-56
2023/01/10 08:20:59;;;;;;;21.67;4.45;;;;;;;3.30;100.00;101748.97;5051364;28;20117;-56
2023/01/10 08:23:26;;;;;;;28.90;5.35;;;;;;;3.30;100.00;101743.69;5052878;28;20494;-56
2023/01/10 08:25:53;;;;;;;21.05;4.88;;;;;;;3.31;100.00;101750.69;5043522;28;20020;-50
2023/01/10 08:28:18;;;;;;;22.50;4.95;;;;;;;3.32;100.00;101751.53;5050040;28;20040;-58
2023/01/10 08:30:43;;;;;;;32.05;5.30;;;;;;;3.33;100.00;101762.00;5053714;28;20020;-58
2023/01/10 08:33:10;;;;;;;21.40;4.78;;;;;;;3.36;100.00;101770.66;5042458;28;20399;-56
2023/01/10 08:35:37;;;;;;;25.77;5.50;;;;;;;3.36;100.00;101762.78;5055488;28;20062;-58
2023/01/10 08:38:03;;;;;;;24.52;4.80;;;;;;;3.36;100.00;101766.28;5052424;28;20387;-58
2023/01/10 08:40:28;;;;;;;33.17;4.97;;;;;;;3.39;100.00;101762.69;5040498;28;20025;-58
2023/01/10 08:43:05;;;;;;;29.52;5.82;;;;;;;3.42;100.00;101755.56;5048005;28;20044;-57
2023/01/10 08:45:32;;;;;;;26.10;4.28;;;;;;;3.44;100.00;101751.13;5042921;28;20041;-58
2023/01/10 08:47:57;;;;;;;27.92;4.82;;;;;;;3.45;100.00;101744.97;5054977;28;20037;-57
2023/01/10 08:50:23;;;;;;;21.90;5.18;;;;;;;3.49;100.00;101757.09;5053974;28;20140;-58
2023/01/10 08:52:49;;;;;;;26.38;5.30;;;;;;;3.51;100.00;101747.41;5051553;28;20075;-57
2023/01/10 08:55:15;;;;;;;26.70;5.32;;;;;;;3.54;100.00;101756.94;5047862;28;20017;-57
2023/01/10 08:57:40;;;;;;;28.20;6.25;;;;;;;3.57;100.00;101751.59;5044486;28;20030;-56
2023/01/10 09:00:06;;;;;;;23.70;4.40;;;;;;;3.59;100.00;101751.56;5051913;28;20057;-57
2023/01/10 09:02:32;;;;;;;24.95;4.63;;;;;;;3.62;100.00;101747.06;5041889;28;20534;-57
2023/01/10 09:04:57;;;;;;;23.33;4.45;;;;;;;3.66;100.00;101745.19;5042318;28;20028;-57
2023/01/10 09:07:22;;;;;;;27.17;5.18;;;;;;;3.69;100.00;101737.19;5043209;28;20064;-56
2023/01/10 09:09:47;;;;;;;20.55;4.75;;;;;;;3.72;100.00;101741.50;5038676;28;20030;-56
2023/01/10 09:14:57;;;;;;;24.20;4.93;;;;;;;3.79;100.00;101743.00;5052779;28;20032;-57
2023/01/10 09:17:22;;;;;;;21.77;4.70;;;;;;;3.81;100.00;101736.78;5054770;28;20029;-55
2023/01/10 09:19:48;;;;;;;20.30;4.35;;;;;;;3.84;100.00;101728.78;5054107;28;20135;-57
2023/01/10 09:22:13;;;;;;;20.05;4.80;;;;;;;3.87;100.00;101741.81;5045239;28;20022;-57
2023/01/10 09:24:40;;;;;;;26.17;4.57;;;;;;;3.89;100.00;101740.00;5053961;28;20029;-56
2023/01/10 09:27:06;;;;;;;28.00;5.03;;;;;;;3.91;100.00;101739.09;5042566;28;20101;-58
2023/01/10 09:29:31;;;;;;;23.38;4.72;;;;;;;3.93;100.00;101735.53;5054613;28;20063;-57
2023/01/10 09:31:56;;;;;;;27.02;4.82;;;;;;;3.95;100.00;101727.59;5054469;28;20025;-58
2023/01/10 09:34:23;;;;;;;25.45;4.53;;;;;;;3.98;100.00;101728.34;5049060;28;20383;-58
2023/01/10 09:36:50;;;;;;;25.50;4.88;;;;;;;3.98;100.00;101725.72;5045832;28;20311;-57
2023/01/10 09:39:15;;;;;;;27.10;4.97;;;;;;;4.01;100.00;101732.59;5043087;28;20468;-58
2023/01/10 09:41:59;;;;;;;28.30;5.55;;;;;;;4.06;100.00;101735.94;5046770;28;20057;-57
2023/01/10 09:44:41;;;;;;;19.73;4.70;;;;;;;4.10;100.00;101739.31;5049494;28;20514;-56
2023/01/10 09:47:23;;;;;;;24.75;4.35;;;;;;;4.13;100.00;101734.81;5052632;28;20048;-58
2023/01/10 09:50:09;;;;;;;21.50;4.20;;;;;;;4.17;100.00;101738.19;5043748;28;20084;-57
2023/01/10 09:52:42;;;;;;;23.88;4.20;;;;;;;4.17;100.00;101728.53;5049602;28;20402;-57
2023/01/10 09:55:17;;;;;;;17.20;3.92;;;;;;;4.22;100.00;101717.84;5030850;28;20045;-55
2023/01/10 09:57:43;;;;;;;23.17;5.00;;;;;;;4.25;100.00;101725.63;5055126;28;20028;-57
2023/01/10 10:00:18;;;;;;;20.23;4.03;;;;;;;4.29;100.00;101726.38;5058001;28;20029;-55
2023/01/10 10:02:48;;;;;;;26.75;4.45;;;;;;;4.30;100.00;101728.97;5063995;28;20063;-53
2023/01/10 10:05:27;;;;;;;25.13;4.25;;;;;;;4.37;100.00;101724.34;5059104;28;20031;-53
2023/01/10 10:07:57;;;;;;;26.80;5.00;;;;;;;4.37;100.00;101732.22;5049262;28;20484;-54
2023/01/10 10:10:31;;;;;;;24.25;4.32;;;;;;;4.41;100.00;101725.91;5053852;28;20036;-56
2023/01/10 10:13:02;;;;;;;23.15;4.18;;;;;;;4.43;100.00;101719.72;5043983;28;20025;-54
2023/01/10 10:15:50;;;;;;;24.90;4.90;;;;;;;4.48;100.00;101716.03;5043707;28;20053;-56
2023/01/10 10:18:26;;;;;;;27.70;4.90;;;;;;;4.49;100.00;101700.19;5047667;28;20105;-57
2023/01/10 10:21:32;;;;;;;22.83;4.43;;;;;;;4.54;100.00;101703.50;5039678;28;20064;-57
2023/01/10 10:24:21;;;;;;;23.95;4.95;;;;;;;4.60;100.00;101698.03;5039306;28;20045;-57
2023/01/10 10:26:57;;;;;;;;;;;;;;;4.65;100.00;101697.84;5048038;28;20434;-56
2023/01/10 10:29:42;;;;;;;21.13;4.00;;;;;;;4.66;100.00;101701.34;5045439;28;19913;-56
2023/01/10 10:32:20;;;;;;;20.70;3.85;;;;;;;4.70;100.00;101698.53;5041490;28;20057;-58
2023/01/10 10:34:55;;;;;;;30.77;4.38;;;;;;;4.73;100.00;101698.44;5046466;28;20025;-57
2023/01/10 10:37:36;;;;;;;25.35;5.05;;;;;;;4.75;100.00;101696.59;5047117;28;20040;-58
2023/01/10 10:40:16;;;;;;;25.02;4.82;;;;;;;4.79;100.00;101684.16;5048779;28;20104;-57
2023/01/10 10:42:49;;;;;;;29.00;4.45;;;;;;;4.80;100.00;101676.19;5057743;28;20382;-57
2023/01/10 10:45:22;;;;;;;23.95;4.47;;;;;;;4.82;100.00;101663.84;5059371;28;20039;-58
2023/01/10 10:47:54;;;;;;;25.80;4.88;;;;;;;4.86;100.00;101667.19;5042614;28;20036;-56
2023/01/10 10:50:29;;;;;;;22.80;5.07;;;;;;;4.89;100.00;101666.22;5038877;28;20045;-57
2023/01/10 10:52:55;;;;;;;17.88;4.18;;;;;;;4.92;100.00;101660.84;5041349;28;20025;-57
2023/01/10 10:55:28;;;;;;;25.15;4.35;;;;;;;4.95;100.00;101655.47;5042264;28;20025;-57
2023/01/10 10:57:54;;;;;;;23.40;4.82;;;;;;;4.99;100.00;101654.41;5044344;28;20086;-56
2023/01/10 11:00:21;;;;;;;22.73;4.07;;;;;;;5.03;100.00;101652.50;5046300;28;20017;-58
2023/01/10 11:03:19;;;;;;;30.67;5.07;;;;;;;5.09;100.00;101647.00;5044646;28;20021;-57
2023/01/10 11:05:46;;;;;;;25.45;5.07;;;;;;;5.10;100.00;101638.19;5012411;28;20075;-57
2023/01/10 11:08:15;;;;;;;23.92;5.60;;;;;;;5.12;100.00;101639.84;5044078;28;20029;-57
2023/01/10 11:10:48;;;;;;;33.30;5.00;;;;;;;5.16;100.00;101635.28;5051115;28;20027;-57
2023/01/10 11:13:26;;;;;;;24.70;4.95;;;;;;;5.18;100.00;101628.22;5048913;28;20476;-58
2023/01/10 11:15:52;;;;;;;22.05;4.43;;;;;;;5.20;100.00;101629.00;5054821;28;20032;-57
2023/01/10 11:18:20;;;;;;;22.33;4.28;;;;;;;5.24;100.00;101621.81;5051291;28;20091;-57
2023/01/10 11:21:05;;;;;;;27.35;4.30;;;;;;;5.28;100.00;101623.38;5054521;28;20037;-56
2023/01/10 11:23:42;;;;;;;25.42;4.97;;;;;;;5.29;100.00;101622.47;5051858;28;20408;-57
2023/01/10 11:26:21;;;;;;;22.60;4.80;;;;;;;5.30;100.00;101614.50;5047568;28;20051;-57
2023/01/10 11:28:46;;;;;;;16.58;4.13;;;;;;;5.34;100.00;101623.13;5047743;28;20036;-57
2023/01/10 11:31:12;;;;;;;22.85;5.00;;;;;;;5.35;100.00;101617.81;5033508;28;20033;-58
2023/01/10 11:33:39;;;;;;;17.95;4.63;;;;;;;5.37;100.00;101617.75;5045336;28;20043;-58
2023/01/10 11:36:07;;;;;;;19.73;4.75;;;;;;;5.40;100.00;101614.13;5045218;28;20037;-58
2023/01/10 11:38:34;;;;;;;23.67;5.28;;;;;;;5.43;100.00;101616.63;5044058;28;20372;-57
2023/01/10 11:41:00;;;;;;;24.92;5.32;;;;;;;5.44;100.00;101611.28;5046167;28;20418;-57